sensor_id;sensor_type;location;lat;lon;timestamp;P1;durP1;ratioP1;P2;durP2;ratioP2
47483;SDS011;54076;50.322;18.650;2024-03-22T00:00:11;41.80;;;20.30;;
47483;SDS011;54076;50.322;18.650;2024-03-22T00:05:12;38.50;;;18.90;;
47483;SDS011;54076;50.322;18.650;2024-03-22T00:10:14;37.10;;;17.50;;
47483;SDS011;54076;50.322;18.650;2024-03-22T00:15:15;38.70;;;18.50;;
47483;SDS011;54076;50.322;18.650;2024-03-22T00:20:16;42.30;;;17.50;;
47483;SDS011;54076;50.322;18.650;2024-03-22T00:25:16;32.00;;;15.60;;
47483;SDS011;54076;50.322;18.650;2024-03-22T00:30:17;31.70;;;15.20;;
47483;SDS011;54076;50.322;18.650;2024-03-22T00:35:18;31.10;;;14.30;;
47483;SDS011;54076;50.322;18.650;2024-03-22T00:40:19;28.90;;;13.50;;
47483;SDS011;54076;50.322;18.650;2024-03-22T00:45:21;27.30;;;12.80;;
47483;SDS011;54076;50.322;18.650;2024-03-22T00:50:22;26.90;;;13.10;;
47483;SDS011;54076;50.322;18.650;2024-03-22T00:55:23;23.00;;;11.90;;
47483;SDS011;54076;50.322;18.650;2024-03-22T01:00:24;24.80;;;12.20;;
47483;SDS011;54076;50.322;18.650;2024-03-22T01:05:25;27.40;;;11.20;;
47483;SDS011;54076;50.322;18.650;2024-03-22T01:10:26;22.70;;;12.00;;
47483;SDS011;54076;50.322;18.650;2024-03-22T01:15:27;26.70;;;10.60;;
47483;SDS011;54076;50.322;18.650;2024-03-22T01:20:28;22.00;;;10.70;;
47483;SDS011;54076;50.322;18.650;2024-03-22T01:25:29;21.90;;;10.30;;
47483;SDS011;54076;50.322;18.650;2024-03-22T01:30:30;20.70;;;10.00;;
47483;SDS011;54076;50.322;18.650;2024-03-22T01:35:31;18.60;;;9.00;;
47483;SDS011;54076;50.322;18.650;2024-03-22T01:40:32;20.40;;;10.10;;
47483;SDS011;54076;50.322;18.650;2024-03-22T01:45:33;19.90;;;9.90;;
47483;SDS011;54076;50.322;18.650;2024-03-22T01:50:34;16.70;;;8.90;;
47483;SDS011;54076;50.322;18.650;2024-03-22T01:55:35;19.00;;;9.30;;
47483;SDS011;54076;50.322;18.650;2024-03-22T02:00:36;18.00;;;9.40;;
47483;SDS011;54076;50.322;18.650;2024-03-22T02:05:37;21.10;;;9.90;;
47483;SDS011;54076;50.322;18.650;2024-03-22T02:10:38;27.90;;;11.30;;
47483;SDS011;54076;50.322;18.650;2024-03-22T02:15:39;21.70;;;11.10;;
47483;SDS011;54076;50.322;18.650;2024-03-22T02:20:39;19.50;;;10.00;;
47483;SDS011;54076;50.322;18.650;2024-03-22T02:25:40;17.70;;;8.90;;
47483;SDS011;54076;50.322;18.650;2024-03-22T02:30:41;17.90;;;8.90;;
47483;SDS011;54076;50.322;18.650;2024-03-22T02:35:42;17.60;;;8.90;;
47483;SDS011;54076;50.322;18.650;2024-03-22T02:40:44;18.50;;;9.60;;
47483;SDS011;54076;50.322;18.650;2024-03-22T02:45:47;17.90;;;9.00;;
47483;SDS011;54076;50.322;18.650;2024-03-22T02:50:48;17.20;;;9.50;;
47483;SDS011;54076;50.322;18.650;2024-03-22T02:55:49;16.50;;;9.30;;
47483;SDS011;54076;50.322;18.650;2024-03-22T03:00:50;16.60;;;8.50;;
47483;SDS011;54076;50.322;18.650;2024-03-22T03:05:51;17.60;;;8.90;;
47483;SDS011;54076;50.322;18.650;2024-03-22T03:10:52;19.20;;;9.00;;
47483;SDS011;54076;50.322;18.650;2024-03-22T03:15:53;20.80;;;9.70;;
47483;SDS011;54076;50.322;18.650;2024-03-22T03:20:54;19.20;;;9.50;;
47483;SDS011;54076;50.322;18.650;2024-03-22T03:25:55;18.20;;;9.40;;
47483;SDS011;54076;50.322;18.650;2024-03-22T03:30:56;18.30;;;9.50;;
47483;SDS011;54076;50.322;18.650;2024-03-22T03:35:57;20.10;;;9.80;;
47483;SDS011;54076;50.322;18.650;2024-03-22T03:40:58;21.70;;;10.60;;
47483;SDS011;54076;50.322;18.650;2024-03-22T03:45:58;21.00;;;9.50;;
47483;SDS011;54076;50.322;18.650;2024-03-22T03:51:00;19.10;;;9.10;;
47483;SDS011;54076;50.322;18.650;2024-03-22T03:56:03;19.00;;;9.30;;
47483;SDS011;54076;50.322;18.650;2024-03-22T04:01:06;18.40;;;8.80;;
47483;SDS011;54076;50.322;18.650;2024-03-22T04:06:07;19.50;;;9.30;;
47483;SDS011;54076;50.322;18.650;2024-03-22T04:11:08;18.30;;;8.40;;
47483;SDS011;54076;50.322;18.650;2024-03-22T04:16:09;17.90;;;8.30;;
47483;SDS011;54076;50.322;18.650;2024-03-22T04:21:10;18.80;;;8.30;;
47483;SDS011;54076;50.322;18.650;2024-03-22T04:26:11;15.60;;;7.30;;
47483;SDS011;54076;50.322;18.650;2024-03-22T04:31:12;15.80;;;7.30;;
47483;SDS011;54076;50.322;18.650;2024-03-22T04:36:13;16.50;;;7.10;;
47483;SDS011;54076;50.322;18.650;2024-03-22T04:41:15;17.00;;;7.70;;
47483;SDS011;54076;50.322;18.650;2024-03-22T04:46:16;17.50;;;7.20;;
47483;SDS011;54076;50.322;18.650;2024-03-22T04:51:17;16.50;;;7.10;;
47483;SDS011;54076;50.322;18.650;2024-03-22T04:56:18;15.50;;;6.10;;
47483;SDS011;54076;50.322;18.650;2024-03-22T05:01:19;12.70;;;6.10;;
47483;SDS011;54076;50.322;18.650;2024-03-22T05:06:20;14.90;;;5.90;;
47483;SDS011;54076;50.322;18.650;2024-03-22T05:11:21;12.90;;;5.80;;
47483;SDS011;54076;50.322;18.650;2024-03-22T05:16:22;12.70;;;5.80;;
47483;SDS011;54076;50.322;18.650;2024-03-22T05:21:24;12.80;;;5.70;;
47483;SDS011;54076;50.322;18.650;2024-03-22T05:26:25;12.40;;;5.20;;
47483;SDS011;54076;50.322;18.650;2024-03-22T05:31:26;11.80;;;5.10;;
47483;SDS011;54076;50.322;18.650;2024-03-22T05:36:26;11.60;;;5.30;;
47483;SDS011;54076;50.322;18.650;2024-03-22T05:41:27;11.10;;;4.90;;
47483;SDS011;54076;50.322;18.650;2024-03-22T05:46:29;11.70;;;5.30;;
47483;SDS011;54076;50.322;18.650;2024-03-22T05:51:30;11.30;;;5.40;;
47483;SDS011;54076;50.322;18.650;2024-03-22T05:56:31;12.80;;;5.00;;
47483;SDS011;54076;50.322;18.650;2024-03-22T06:01:32;11.60;;;5.40;;
47483;SDS011;54076;50.322;18.650;2024-03-22T06:06:36;12.10;;;5.60;;
47483;SDS011;54076;50.322;18.650;2024-03-22T06:11:37;12.60;;;5.60;;
47483;SDS011;54076;50.322;18.650;2024-03-22T06:16:38;12.50;;;5.40;;
47483;SDS011;54076;50.322;18.650;2024-03-22T06:21:38;10.80;;;5.10;;
47483;SDS011;54076;50.322;18.650;2024-03-22T06:26:39;13.30;;;5.40;;
47483;SDS011;54076;50.322;18.650;2024-03-22T06:31:40;12.50;;;5.40;;
47483;SDS011;54076;50.322;18.650;2024-03-22T06:36:41;11.30;;;5.40;;
47483;SDS011;54076;50.322;18.650;2024-03-22T06:41:43;11.50;;;5.00;;
47483;SDS011;54076;50.322;18.650;2024-03-22T06:46:45;13.10;;;5.80;;
47483;SDS011;54076;50.322;18.650;2024-03-22T06:51:46;12.00;;;5.80;;
47483;SDS011;54076;50.322;18.650;2024-03-22T06:56:47;15.20;;;5.30;;
47483;SDS011;54076;50.322;18.650;2024-03-22T07:01:48;12.90;;;5.60;;
47483;SDS011;54076;50.322;18.650;2024-03-22T07:06:49;15.10;;;6.00;;
47483;SDS011;54076;50.322;18.650;2024-03-22T07:11:50;13.00;;;5.30;;
47483;SDS011;54076;50.322;18.650;2024-03-22T07:16:51;13.20;;;6.30;;
47483;SDS011;54076;50.322;18.650;2024-03-22T07:21:54;15.00;;;6.00;;
47483;SDS011;54076;50.322;18.650;2024-03-22T07:26:55;15.30;;;6.20;;
47483;SDS011;54076;50.322;18.650;2024-03-22T07:31:56;15.50;;;6.70;;
47483;SDS011;54076;50.322;18.650;2024-03-22T07:36:57;15.30;;;6.70;;
47483;SDS011;54076;50.322;18.650;2024-03-22T07:41:58;14.70;;;5.60;;
47483;SDS011;54076;50.322;18.650;2024-03-22T07:46:59;14.30;;;5.40;;
47483;SDS011;54076;50.322;18.650;2024-03-22T07:52:00;13.90;;;6.50;;
47483;SDS011;54076;50.322;18.650;2024-03-22T07:57:01;16.10;;;6.40;;
47483;SDS011;54076;50.322;18.650;2024-03-22T08:02:03;17.60;;;7.00;;
47483;SDS011;54076;50.322;18.650;2024-03-22T08:07:04;14.10;;;6.20;;
47483;SDS011;54076;50.322;18.650;2024-03-22T08:12:05;12.30;;;6.00;;
47483;SDS011;54076;50.322;18.650;2024-03-22T08:17:07;13.10;;;5.20;;
47483;SDS011;54076;50.322;18.650;2024-03-22T08:22:10;13.30;;;6.20;;
47483;SDS011;54076;50.322;18.650;2024-03-22T08:27:11;12.70;;;5.30;;
47483;SDS011;54076;50.322;18.650;2024-03-22T08:32:13;11.10;;;4.70;;
47483;SDS011;54076;50.322;18.650;2024-03-22T08:37:13;13.60;;;4.20;;
47483;SDS011;54076;50.322;18.650;2024-03-22T08:42:14;9.50;;;4.00;;
47483;SDS011;54076;50.322;18.650;2024-03-22T08:47:15;11.00;;;4.80;;
47483;SDS011;54076;50.322;18.650;2024-03-22T08:52:16;9.90;;;4.20;;
47483;SDS011;54076;50.322;18.650;2024-03-22T08:57:17;8.90;;;4.20;;
47483;SDS011;54076;50.322;18.650;2024-03-22T09:02:18;9.70;;;4.40;;
47483;SDS011;54076;50.322;18.650;2024-03-22T09:07:19;14.90;;;6.30;;
47483;SDS011;54076;50.322;18.650;2024-03-22T09:12:20;10.70;;;4.50;;
47483;SDS011;54076;50.322;18.650;2024-03-22T09:17:21;10.70;;;4.90;;
47483;SDS011;54076;50.322;18.650;2024-03-22T09:22:22;11.30;;;5.10;;
47483;SDS011;54076;50.322;18.650;2024-03-22T09:27:23;14.30;;;5.30;;
47483;SDS011;54076;50.322;18.650;2024-03-22T09:32:24;11.10;;;5.20;;
47483;SDS011;54076;50.322;18.650;2024-03-22T09:37:27;10.60;;;4.40;;
47483;SDS011;54076;50.322;18.650;2024-03-22T09:42:28;11.40;;;5.20;;
47483;SDS011;54076;50.322;18.650;2024-03-22T09:47:32;17.30;;;7.10;;
47483;SDS011;54076;50.322;18.650;2024-03-22T09:52:33;11.60;;;5.40;;
47483;SDS011;54076;50.322;18.650;2024-03-22T09:57:39;11.70;;;5.20;;
47483;SDS011;54076;50.322;18.650;2024-03-22T10:02:41;12.40;;;5.70;;
47483;SDS011;54076;50.322;18.650;2024-03-22T10:07:43;11.00;;;5.00;;
47483;SDS011;54076;50.322;18.650;2024-03-22T10:12:44;12.60;;;5.10;;
47483;SDS011;54076;50.322;18.650;2024-03-22T10:17:45;10.70;;;5.40;;
47483;SDS011;54076;50.322;18.650;2024-03-22T10:23:04;11.80;;;5.10;;
47483;SDS011;54076;50.322;18.650;2024-03-22T10:28:05;10.60;;;5.00;;
47483;SDS011;54076;50.322;18.650;2024-03-22T10:33:06;41.40;;;19.70;;
47483;SDS011;54076;50.322;18.650;2024-03-22T10:38:07;14.20;;;6.90;;
47483;SDS011;54076;50.322;18.650;2024-03-22T10:43:08;11.90;;;5.70;;
47483;SDS011;54076;50.322;18.650;2024-03-22T10:48:10;10.40;;;5.70;;
47483;SDS011;54076;50.322;18.650;2024-03-22T10:53:19;13.90;;;5.70;;
47483;SDS011;54076;50.322;18.650;2024-03-22T10:58:25;13.80;;;5.40;;
47483;SDS011;54076;50.322;18.650;2024-03-22T11:03:26;10.40;;;5.30;;
47483;SDS011;54076;50.322;18.650;2024-03-22T11:08:30;11.90;;;5.90;;
47483;SDS011;54076;50.322;18.650;2024-03-22T11:13:35;11.10;;;5.60;;
47483;SDS011;54076;50.322;18.650;2024-03-22T11:18:37;12.10;;;5.60;;
47483;SDS011;54076;50.322;18.650;2024-03-22T11:23:38;11.20;;;5.40;;
47483;SDS011;54076;50.322;18.650;2024-03-22T11:28:39;9.70;;;4.50;;
47483;SDS011;54076;50.322;18.650;2024-03-22T11:33:40;9.70;;;4.90;;
47483;SDS011;54076;50.322;18.650;2024-03-22T11:38:41;23.30;;;4.40;;
47483;SDS011;54076;50.322;18.650;2024-03-22T11:43:42;10.80;;;4.80;;
47483;SDS011;54076;50.322;18.650;2024-03-22T11:48:43;12.00;;;4.60;;
47483;SDS011;54076;50.322;18.650;2024-03-22T11:53:51;12.60;;;5.60;;
47483;SDS011;54076;50.322;18.650;2024-03-22T11:58:59;9.20;;;4.40;;
47483;SDS011;54076;50.322;18.650;2024-03-22T12:04:01;19.50;;;9.10;;
47483;SDS011;54076;50.322;18.650;2024-03-22T12:09:02;11.80;;;4.80;;
47483;SDS011;54076;50.322;18.650;2024-03-22T12:14:04;12.60;;;5.10;;
47483;SDS011;54076;50.322;18.650;2024-03-22T12:19:05;11.20;;;5.00;;
47483;SDS011;54076;50.322;18.650;2024-03-22T12:24:07;9.50;;;4.30;;
47483;SDS011;54076;50.322;18.650;2024-03-22T12:29:08;11.70;;;4.20;;
47483;SDS011;54076;50.322;18.650;2024-03-22T12:34:11;12.60;;;5.10;;
47483;SDS011;54076;50.322;18.650;2024-03-22T12:39:12;9.40;;;5.20;;
47483;SDS011;54076;50.322;18.650;2024-03-22T12:44:13;9.80;;;4.30;;
47483;SDS011;54076;50.322;18.650;2024-03-22T12:49:14;11.50;;;5.00;;
47483;SDS011;54076;50.322;18.650;2024-03-22T12:54:14;10.90;;;4.70;;
47483;SDS011;54076;50.322;18.650;2024-03-22T12:59:19;9.20;;;4.60;;
47483;SDS011;54076;50.322;18.650;2024-03-22T13:04:19;10.50;;;4.90;;
47483;SDS011;54076;50.322;18.650;2024-03-22T13:09:20;11.30;;;5.40;;
47483;SDS011;54076;50.322;18.650;2024-03-22T13:14:22;10.90;;;5.70;;
47483;SDS011;54076;50.322;18.650;2024-03-22T13:19:23;18.00;;;6.40;;
47483;SDS011;54076;50.322;18.650;2024-03-22T13:24:24;13.90;;;6.80;;
47483;SDS011;54076;50.322;18.650;2024-03-22T13:29:25;14.30;;;7.10;;
47483;SDS011;54076;50.322;18.650;2024-03-22T13:34:27;13.60;;;6.90;;
47483;SDS011;54076;50.322;18.650;2024-03-22T13:39:29;12.60;;;6.10;;
47483;SDS011;54076;50.322;18.650;2024-03-22T13:44:32;15.30;;;7.60;;
47483;SDS011;54076;50.322;18.650;2024-03-22T13:49:34;14.00;;;6.50;;
47483;SDS011;54076;50.322;18.650;2024-03-22T13:54:36;14.70;;;7.10;;
47483;SDS011;54076;50.322;18.650;2024-03-22T13:59:37;12.80;;;5.90;;
47483;SDS011;54076;50.322;18.650;2024-03-22T14:04:37;13.00;;;6.50;;
47483;SDS011;54076;50.322;18.650;2024-03-22T14:09:38;13.70;;;6.60;;
47483;SDS011;54076;50.322;18.650;2024-03-22T14:14:41;12.10;;;6.10;;
47483;SDS011;54076;50.322;18.650;2024-03-22T14:19:42;24.80;;;8.30;;
47483;SDS011;54076;50.322;18.650;2024-03-22T14:24:43;16.80;;;7.90;;
47483;SDS011;54076;50.322;18.650;2024-03-22T14:29:45;30.80;;;8.90;;
47483;SDS011;54076;50.322;18.650;2024-03-22T14:34:46;18.90;;;8.30;;
47483;SDS011;54076;50.322;18.650;2024-03-22T14:39:47;15.10;;;7.60;;
47483;SDS011;54076;50.322;18.650;2024-03-22T14:44:48;16.40;;;8.10;;
47483;SDS011;54076;50.322;18.650;2024-03-22T14:49:49;16.20;;;8.30;;
47483;SDS011;54076;50.322;18.650;2024-03-22T14:54:52;17.10;;;7.90;;
47483;SDS011;54076;50.322;18.650;2024-03-22T14:59:53;18.00;;;9.20;;
47483;SDS011;54076;50.322;18.650;2024-03-22T15:04:54;19.50;;;9.00;;
47483;SDS011;54076;50.322;18.650;2024-03-22T15:09:55;21.10;;;9.60;;
47483;SDS011;54076;50.322;18.650;2024-03-22T15:14:56;16.80;;;8.50;;
47483;SDS011;54076;50.322;18.650;2024-03-22T15:19:57;19.50;;;7.70;;
47483;SDS011;54076;50.322;18.650;2024-03-22T15:24:58;16.40;;;8.40;;
47483;SDS011;54076;50.322;18.650;2024-03-22T15:29:59;18.60;;;8.70;;
47483;SDS011;54076;50.322;18.650;2024-03-22T15:34:59;18.60;;;8.30;;
47483;SDS011;54076;50.322;18.650;2024-03-22T15:40:00;16.70;;;8.50;;
47483;SDS011;54076;50.322;18.650;2024-03-22T15:45:01;17.80;;;8.20;;
47483;SDS011;54076;50.322;18.650;2024-03-22T15:50:05;16.70;;;8.10;;
47483;SDS011;54076;50.322;18.650;2024-03-22T15:55:07;17.20;;;7.90;;
47483;SDS011;54076;50.322;18.650;2024-03-22T16:00:09;22.60;;;8.90;;
47483;SDS011;54076;50.322;18.650;2024-03-22T16:05:12;20.10;;;8.50;;
47483;SDS011;54076;50.322;18.650;2024-03-22T16:10:13;17.90;;;8.70;;
47483;SDS011;54076;50.322;18.650;2024-03-22T16:15:14;16.40;;;8.30;;
47483;SDS011;54076;50.322;18.650;2024-03-22T16:20:15;17.20;;;9.10;;
47483;SDS011;54076;50.322;18.650;2024-03-22T16:25:16;22.30;;;9.80;;
47483;SDS011;54076;50.322;18.650;2024-03-22T16:30:17;23.50;;;10.50;;
47483;SDS011;54076;50.322;18.650;2024-03-22T16:35:18;22.40;;;10.80;;
47483;SDS011;54076;50.322;18.650;2024-03-22T16:40:20;22.50;;;10.90;;
47483;SDS011;54076;50.322;18.650;2024-03-22T16:45:21;24.60;;;12.30;;
47483;SDS011;54076;50.322;18.650;2024-03-22T16:50:22;23.60;;;11.50;;
47483;SDS011;54076;50.322;18.650;2024-03-22T16:55:23;24.40;;;13.00;;
47483;SDS011;54076;50.322;18.650;2024-03-22T17:00:26;27.00;;;12.20;;
47483;SDS011;54076;50.322;18.650;2024-03-22T17:05:30;25.30;;;12.00;;
47483;SDS011;54076;50.322;18.650;2024-03-22T17:10:33;24.10;;;11.90;;
47483;SDS011;54076;50.322;18.650;2024-03-22T17:15:34;22.90;;;11.80;;
47483;SDS011;54076;50.322;18.650;2024-03-22T17:20:35;27.10;;;12.20;;
47483;SDS011;54076;50.322;18.650;2024-03-22T17:25:36;28.50;;;13.70;;
47483;SDS011;54076;50.322;18.650;2024-03-22T17:30:37;25.70;;;12.10;;
47483;SDS011;54076;50.322;18.650;2024-03-22T17:35:38;25.00;;;12.10;;
47483;SDS011;54076;50.322;18.650;2024-03-22T17:40:38;27.00;;;12.30;;
47483;SDS011;54076;50.322;18.650;2024-03-22T17:45:40;28.00;;;11.70;;
47483;SDS011;54076;50.322;18.650;2024-03-22T17:50:41;24.20;;;11.30;;
47483;SDS011;54076;50.322;18.650;2024-03-22T17:55:41;22.40;;;11.00;;
47483;SDS011;54076;50.322;18.650;2024-03-22T18:00:42;25.40;;;11.00;;
47483;SDS011;54076;50.322;18.650;2024-03-22T18:05:43;22.50;;;10.60;;
47483;SDS011;54076;50.322;18.650;2024-03-22T18:10:44;28.10;;;10.50;;
47483;SDS011;54076;50.322;18.650;2024-03-22T18:15:45;26.00;;;11.40;;
47483;SDS011;54076;50.322;18.650;2024-03-22T18:20:46;23.90;;;10.60;;
47483;SDS011;54076;50.322;18.650;2024-03-22T18:25:49;21.70;;;10.40;;
47483;SDS011;54076;50.322;18.650;2024-03-22T18:30:50;21.80;;;10.90;;
47483;SDS011;54076;50.322;18.650;2024-03-22T18:35:51;21.20;;;10.00;;
47483;SDS011;54076;50.322;18.650;2024-03-22T18:40:52;23.10;;;9.80;;
47483;SDS011;54076;50.322;18.650;2024-03-22T18:45:53;20.50;;;9.90;;
47483;SDS011;54076;50.322;18.650;2024-03-22T18:50:53;23.80;;;9.50;;
47483;SDS011;54076;50.322;18.650;2024-03-22T18:55:54;19.60;;;9.20;;
47483;SDS011;54076;50.322;18.650;2024-03-22T19:00:55;19.20;;;8.80;;
47483;SDS011;54076;50.322;18.650;2024-03-22T19:05:56;16.60;;;7.80;;
47483;SDS011;54076;50.322;18.650;2024-03-22T19:10:57;19.50;;;8.50;;
47483;SDS011;54076;50.322;18.650;2024-03-22T19:15:58;19.50;;;8.40;;
47483;SDS011;54076;50.322;18.650;2024-03-22T19:20:59;16.70;;;8.40;;
47483;SDS011;54076;50.322;18.650;2024-03-22T19:26:00;19.20;;;8.60;;
47483;SDS011;54076;50.322;18.650;2024-03-22T19:31:00;17.60;;;8.10;;
47483;SDS011;54076;50.322;18.650;2024-03-22T19:36:03;19.60;;;8.90;;
47483;SDS011;54076;50.322;18.650;2024-03-22T19:41:04;17.10;;;7.70;;
47483;SDS011;54076;50.322;18.650;2024-03-22T19:46:05;18.30;;;8.20;;
47483;SDS011;54076;50.322;18.650;2024-03-22T19:51:06;18.70;;;7.80;;
47483;SDS011;54076;50.322;18.650;2024-03-22T19:56:08;16.60;;;7.50;;
47483;SDS011;54076;50.322;18.650;2024-03-22T20:01:09;16.10;;;7.80;;
47483;SDS011;54076;50.322;18.650;2024-03-22T20:06:10;19.00;;;8.00;;
47483;SDS011;54076;50.322;18.650;2024-03-22T20:11:11;17.10;;;7.60;;
47483;SDS011;54076;50.322;18.650;2024-03-22T20:16:12;17.30;;;8.20;;
47483;SDS011;54076;50.322;18.650;2024-03-22T20:21:13;20.60;;;9.20;;
47483;SDS011;54076;50.322;18.650;2024-03-22T20:26:13;17.50;;;8.40;;
47483;SDS011;54076;50.322;18.650;2024-03-22T20:31:15;20.50;;;7.60;;
47483;SDS011;54076;50.322;18.650;2024-03-22T20:36:16;16.10;;;7.80;;
